Time;durP1;ratioP1;P1;durP2;ratioP2;P2;SDS_P1;SDS_P2;PMS_P1;PMS_P2;Temp;Humidity;BMP_temperature;BMP_pressure;BME280_temperature;BME280_humidity;BME280_pressure;Samples;Min_cycle;Max_cycle;Signal;HPM_P1;HPM_P2
2022/04/07 14:20:49;;;;;;;;;;;;;;;;;;1576195;27;83463;-87
2022/04/07 14:21:34;;;;;;;;;;;;;;;;;;1578224;27;86231;-88
2022/04/07 14:22:19;;;;;;;;;;;;;;;;;;1566332;27;85017;-88
2022/04/07 14:23:04;;;;;;;;;;;;;;;;;;1573087;27;85148;-88
2022/04/07 14:23:54;;;;;;;;;;;;;;;;;;1571145;27;84624;-87
2022/04/07 14:24:40;;;;;;;;;;;;;;;;;;1566666;27;83750;-87
2022/04/07 14:25:25;;;;;;;;;;;;;;;;;;1559700;28;84323;-86
2022/04/07 14:26:10;;;;;;;;;;;;;;;;;;1565527;27;83247;-87
2022/04/07 14:26:55;;;;;;;;;;;;;;;;;;1563344;27;86074;-87
2022/04/07 14:27:42;;;;;;;;;;;;;;;;;;1569731;27;86414;-88
2022/04/07 14:28:27;;;;;;;;;;;;;;;;;;1565071;27;84624;-88
2022/04/07 14:29:12;;;;;;;;;;;;;;;;;;1562077;27;83615;-89
2022/04/07 14:29:57;;;;;;;;;;;;;;;;;;1567352;27;85197;-89
2022/04/07 14:30:42;;;;;;;;;;;;;;;;;;1570765;27;85470;-88
2022/04/07 14:31:28;;;;;;;;;;;;;;;;;;1567595;27;83501;-88
2022/04/07 14:32:13;;;;;;;;;;;;;;;;;;1579291;27;85048;-88
2022/04/07 14:32:58;;;;;;;;;;;;;;;;;;1580684;27;86154;-88
2022/04/07 14:33:46;;;;;;;;;;;;;;;;;;1572292;27;84594;-89
2022/04/07 14:34:31;;;;;;;;;;;;;;;;;;1576591;27;84854;-87
2022/04/07 14:35:16;;;;;;;;;;;;;;;;;;1580677;27;86309;-88
2022/04/07 14:36:01;;;;;;;;;;;;;;;;;;1578690;27;85437;-88
2022/04/07 14:36:47;;;;;;;;;;;;;;;;;;1561148;27;84948;-88
2022/04/07 14:37:32;;;;;;;;;;;;;;;;;;1568250;27;84893;-88
2022/04/07 14:38:17;;;;;;;;;;;;;;;;;;1569930;27;85388;-88
2022/04/07 14:39:02;;;;;;;;;;;;;;;;;;1561330;27;86017;-88
2022/04/07 14:39:47;;;;;;;;;;;;;;;;;;1563567;27;84422;-88
2022/04/07 14:40:33;;;;;;;;;;;;;;;;;;1563792;27;84709;-88
2022/04/07 14:41:18;;;;;;;;;;;;;;;;;;1559658;28;86364;-88
2022/04/07 14:42:03;;;;;;;;;;;;;;;;;;1566533;27;84772;-88
2022/04/07 14:42:48;;;;;;;;;;;;;;;;;;1570037;27;83817;-89
2022/04/07 14:43:33;;;;;;;;;;;;;;;;;;1566026;27;86870;-87
2022/04/07 14:44:18;;;;;;;;;;;;;;;;;;1567977;27;84153;-89
2022/04/07 14:45:03;;;;;;;;;;;;;;;;;;1567810;27;85315;-88
2022/04/07 14:45:50;;;;;;;;;;;;;;;;;;1559473;27;85769;-88
2022/04/07 14:46:35;;;;;;;;;;;;;;;;;;1563889;27;85941;-87
2022/04/07 14:47:20;;;;;;;;;;;;;;;;;;1572615;27;85937;-88
2022/04/07 14:48:05;;;;;;;;;;;;;;;;;;1565864;27;84078;-88
2022/04/07 14:48:52;;;;;;;;;;;;;;;;;;1569591;27;85492;-89
2022/04/07 14:49:37;;;;;;;;;;;;;;;;;;1574182;27;85488;-89
2022/04/07 14:50:25;;;;;;;;;;;;;;;;;;1572132;27;85118;-89
2022/04/07 14:51:10;;;;;;;;;;;;;;;;;;1574061;27;85634;-88
2022/04/07 14:51:55;;;;;;;;;;;;;;;;;;1569824;27;85325;-89
2022/04/07 14:52:41;;;;;;;;;;;;;;;;;;1565706;27;85160;-88
2022/04/07 14:53:26;;;;;;;;;;;;;;;;;;1564044;27;85327;-89
2022/04/07 14:54:11;;;;;;;;;;;;;;;;;;1561415;28;84941;-89
2022/04/07 14:54:56;;;;;;;;;;;;;;;;;;1567876;27;84528;-88
2022/04/07 14:55:41;;;;;;;;;;;;;;;;;;1567921;27;84057;-88
2022/04/07 14:56:26;;;;;;;;;;;;;;;;;;1566039;27;85313;-88
2022/04/07 14:57:11;;;;;;;;;;;;;;;;;;1567429;27;85148;-88
2022/04/07 14:57:57;;;;;;;;;;;;;;;;;;1563175;27;84290;-89
2022/04/07 14:58:42;;;;;;;;;;;;;;;;;;1559596;28;85268;-89
2022/04/07 14:59:27;;;;;;;;;;;;;;;;;;1563839;27;85535;-89
2022/04/07 15:00:12;;;;;;;;;;;;;;;;;;1563779;27;86462;-91
2022/04/07 15:00:57;;;;;;;;;;;;;;;;;;1565815;27;85867;-89
2022/04/07 15:01:42;;;;;;;;;;;;;;;;;;1561748;28;85226;-88
2022/04/07 15:02:27;;;;;;;;;;;;;;;;;;1568062;27;84058;-88
2022/04/07 15:03:13;;;;;;;;;;;;;;;;;;1569781;27;85531;-88
2022/04/07 15:04:00;;;;;;;;;;;;;;;;;;1568432;27;83440;-88
2022/04/07 15:04:45;;;;;;;;;;;;;;;;;;1567818;27;83473;-88
2022/04/07 15:05:30;;;;;;;;;;;;;;;;;;1570330;27;83314;-89
2022/04/07 15:06:15;;;;;;;;;;;;;;;;;;1565506;27;83433;-89
2022/04/07 15:07:00;;;;;;;;;;;;;;;;;;1570106;27;83383;-89
2022/04/07 15:07:46;;;;;;;;;;;;;;;;;;1574526;27;83452;-89
2022/04/07 15:08:31;;;;;;;;;;;;;;;;;;1572054;27;82990;-88
2022/04/07 15:09:18;;;;;;;;;;;;;;;;;;1565868;27;83588;-88
2022/04/07 15:10:03;;;;;;;;;;;;;;;;;;1567762;27;83107;-89
2022/04/07 15:10:48;;;;;;;;;;;;;;;;;;1567887;27;82830;-89
2022/04/07 15:11:33;;;;;;;;;;;;;;;;;;1564928;27;83418;-89
2022/04/07 15:12:18;;;;;;;;;;;;;;;;;;1563422;27;83262;-89
2022/04/07 15:13:03;;;;;;;;;;;;;;;;;;1557420;28;83466;-89
2022/04/07 15:13:48;;;;;;;;;;;;;;;;;;1557344;28;83169;-88
2022/04/07 15:14:39;;;;;;;;;;;;;;;;;;1561608;28;83484;-89
2022/04/07 15:15:24;;;;;;;;;;;;;;;;;;1561668;28;83408;-89
2022/04/07 15:16:09;;;;;;;;;;;;;;;;;;1558027;28;83481;-89
2022/04/07 15:16:55;;;;;;;;;;;;;;;;;;1561632;27;83347;-89
2022/04/07 15:17:40;;;;;;;;;;;;;;;;;;1561063;28;83445;-90
2022/04/07 15:18:25;;;;;;;;;;;;;;;;;;1555426;28;83644;-90
2022/04/07 15:19:10;;;;;;;;;;;;;;;;;;1557254;28;83555;-89
2022/04/07 15:19:55;;;;;;;;;;;;;;;;;;1557263;28;83184;-91
2022/04/07 15:20:45;;;;;;;;;;;;;;;;;;1558935;28;83551;-91
2022/04/07 15:21:30;;;;;;;;;;;;;;;;;;1553730;28;83495;-90
2022/04/07 15:22:16;;;;;;;;;;;;;;;;;;1558172;28;83290;-90
2022/04/07 15:23:01;;;;;;;;;;;;;;;;;;1555659;28;83286;-89
2022/04/07 15:23:46;;;;;;;;;;;;;;;;;;1557451;28;83471;-89
2022/04/07 15:24:32;;;;;;;;;;;;;;;;;;1557420;28;82976;-90
2022/04/07 15:25:17;;;;;;;;;;;;;;;;;;1564358;28;83575;-90
2022/04/07 15:26:02;;;;;;;;;;;;;;;;;;1559403;28;83477;-89
2022/04/07 15:26:47;;;;;;;;;;;;;;;;;;1561370;27;84961;-89
2022/04/07 15:27:32;;;;;;;;;;;;;;;;;;1561749;28;85167;-89
2022/04/07 15:28:18;;;;;;;;;;;;;;;;;;1555399;28;84530;-88
2022/04/07 15:29:03;;;;;;;;;;;;;;;;;;1551204;28;85356;-90
2022/04/07 15:29:48;;;;;;;;;;;;;;;;;;1555233;28;84454;-89
2022/04/07 15:30:33;;;;;;;;;;;;;;;;;;1557204;28;86405;-88
2022/04/07 15:31:18;;;;;;;;;;;;;;;;;;1555275;28;85711;-89
2022/04/07 15:32:03;;;;;;;;;;;;;;;;;;1551716;28;86381;-89
2022/04/07 15:32:49;;;;;;;;;;;;;;;;;;1553043;28;84458;-89
2022/04/07 15:33:35;;;;;;;;;;;;;;;;;;1552587;28;84927;-88
2022/04/07 15:34:20;;;;;;;;;;;;;;;;;;1552576;28;84705;-88
2022/04/07 15:35:05;;;;;;;;;;;;;;;;;;1553850;28;83679;-89
2022/04/07 15:35:50;;;;;;;;;;;;;;;;;;1554293;28;84599;-89
2022/04/07 15:36:36;;;;;;;;;;;;;;;;;;1556777;28;85197;-89
2022/04/07 15:37:23;;;;;;;;;;;;;;;;;;1557983;28;84523;-89
2022/04/07 15:38:08;;;;;;;;;;;;;;;;;;1554469;28;84034;-90
2022/04/07 15:38:53;;;;;;;;;;;;;;;;;;1550843;28;84921;-89
2022/04/07 15:39:38;;;;;;;;;;;;;;;;;;1556018;28;84760;-89
2022/04/07 15:40:23;;;;;;;;;;;;;;;;;;1549965;28;84994;-89
2022/04/07 15:41:08;;;;;;;;;;;;;;;;;;1552017;28;85117;-89
2022/04/07 15:41:54;;;;;;;;;;;;;;;;;;1550419;28;84700;-88
2022/04/07 15:42:39;;;;;;;;;;;;;;;;;;1548171;28;85243;-89
2022/04/07 15:43:24;;;;;;;;;;;;;;;;;;1556576;28;83799;-90
2022/04/07 15:44:09;;;;;;;;;;;;;;;;;;1553149;28;83379;-86
2022/04/07 15:44:54;;;;;;;;;;;;;;;;;;1548993;28;85210;-86
2022/04/07 15:45:40;;;;;;;;;;;;;;;;;;1541528;28;84400;-85
2022/04/07 15:46:25;;;;;;;;;;;;;;;;;;1542276;28;85700;-85
2022/04/07 15:47:11;;;;;;;;;;;;;;;;;;1540879;28;86770;-85
2022/04/07 15:47:56;;;;;;;;;;;;;;;;;;1544847;28;85823;-84
2022/04/07 15:48:42;;;;;;;;;;;;;;;;;;1545204;28;85945;-84
2022/04/07 15:49:29;;;;;;;;;;;;;;;;;;1541123;28;86362;-92
2022/04/07 15:50:16;;;;;;;;;;;;;;;;;;1542968;28;85044;-90
2022/04/07 15:51:04;;;;;;;;;;;;;;;;;;1551641;28;85306;-92
2022/04/07 15:51:49;;;;;;;;;;;;;;;;;;1547641;28;84392;-90
2022/04/07 15:52:34;;;;;;;;;;;;;;;;;;1542295;28;84288;-90
2022/04/07 15:53:19;;;;;;;;;;;;;;;;;;1544312;28;84231;-93
2022/04/07 15:54:05;;;;;;;;;;;;;;;;;;1544046;28;85583;-90
2022/04/07 15:54:50;;;;;;;;;;;;;;;;;;1542296;28;85447;-91
2022/04/07 15:55:38;;;;;;;;;;;;;;;;;;1546335;28;83380;-90
2022/04/07 15:56:23;;;;;;;;;;;;;;;;;;1548027;28;85642;-92
2022/04/07 15:57:08;;;;;;;;;;;;;;;;;;1553564;28;85497;-90
2022/04/07 15:57:53;;;;;;;;;;;;;;;;;;1556862;28;84938;-90
2022/04/07 15:58:38;;;;;;;;;;;;;;;;;;1554357;28;86752;-89
2022/04/07 15:59:24;;;;;;;;;;;;;;;;;;1553534;28;84011;-91
2022/04/07 16:00:09;;;;;;;;;;;;;;;;;;1550596;28;84175;-88
2022/04/07 16:00:54;;;;;;;;;;;;;;;;;;1549978;28;85327;-89
2022/04/07 16:01:39;;;;;;;;;;;;;;;;;;1555449;28;85207;-91
2022/04/07 16:02:24;;;;;;;;;;;;;;;;;;1557439;28;84350;-89
2022/04/07 16:03:11;;;;;;;;;;;;;;;;;;1552444;28;85080;-89
2022/04/07 16:03:56;;;;;;;;;;;;;;;;;;1554500;28;84434;-90
2022/04/07 16:04:41;;;;;;;;;;;;;;;;;;1556286;28;85366;-89
2022/04/07 16:05:26;;;;;;;;;;;;;;;;;;1551423;28;84365;-88
2022/04/07 16:06:11;;;;;;;;;;;;;;;;;;1546640;28;86420;-87
2022/04/07 16:06:57;;;;;;;;;;;;;;;;;;1548975;28;85224;-88
2022/04/07 16:07:42;;;;;;;;;;;;;;;;;;1546078;28;83841;-88
2022/04/07 16:08:28;;;;;;;;;;;;;;;;;;1542957;28;86769;-89
2022/04/07 16:09:13;;;;;;;;;;;;;;;;;;1541905;28;83538;-90
2022/04/07 16:09:59;;;;;;;;;;;;;;;;;;1550425;28;84630;-89
2022/04/07 16:10:44;;;;;;;;;;;;;;;;;;1553494;28;83003;-87
2022/04/07 16:11:29;;;;;;;;;;;;;;;;;;1553988;28;83861;-92
2022/04/07 16:12:15;;;;;;;;;;;;;;;;;;1555338;28;82720;-89
2022/04/07 16:13:00;;;;;;;;;;;;;;;;;;1557554;28;84564;-88
2022/04/07 16:13:45;;;;;;;;;;;;;;;;;;1552983;28;82962;-91
2022/04/07 16:14:33;;;;;;;;;;;;;;;;;;1556716;28;83771;-89
2022/04/07 16:15:18;;;;;;;;;;;;;;;;;;1559131;28;82778;-89
2022/04/07 16:16:03;;;;;;;;;;;;;;;;;;1555094;28;83906;-90
2022/04/07 16:16:49;;;;;;;;;;;;;;;;;;1555008;28;83328;-88
2022/04/07 16:17:34;;;;;;;;;;;;;;;;;;1554874;28;82640;-90
2022/04/07 16:18:19;;;;;;;;;;;;;;;;;;1550086;28;83968;-89
2022/04/07 16:19:05;;;;;;;;;;;;;;;;;;1550944;28;84697;-92
2022/04/07 16:19:50;;;;;;;;;;;;;;;;;;1553131;28;83416;-89
2022/04/07 16:20:35;;;;;;;;;;;;;;;;;;1548733;28;83520;-89
2022/04/07 16:21:21;;;;;;;;;;;;;;;;;;1555859;28;83655;-89
2022/04/07 16:22:06;;;;;;;;;;;;;;;;;;1541483;28;83528;-90
2022/04/07 16:22:51;;;;;;;;;;;;;;;;;;1551203;28;83786;-89
2022/04/07 16:23:36;;;;;;;;;;;;;;;;;;1553675;28;83505;-91
2022/04/07 16:24:21;;;;;;;;;;;;;;;;;;1555453;28;83011;-90
2022/04/07 16:25:07;;;;;;;;;;;;;;;;;;1544774;28;83477;-89
2022/04/07 16:25:52;;;;;;;;;;;;;;;;;;1540508;28;85236;-88
2022/04/07 16:26:37;;;;;;;;;;;;;;;;;;1551008;28;83478;-89
2022/04/07 16:27:22;;;;;;;;;;;;;;;;;;1552843;28;83559;-89
2022/04/07 16:28:07;;;;;;;;;;;;;;;;;;1548887;28;83600;-90
2022/04/07 16:28:54;;;;;;;;;;;;;;;;;;1550905;28;84528;-89
2022/04/07 16:29:39;;;;;;;;;;;;;;;;;;1555858;28;83432;-88
2022/04/07 16:30:24;;;;;;;;;;;;;;;;;;1548369;28;85168;-88
2022/04/07 16:31:09;;;;;;;;;;;;;;;;;;1549437;28;85099;-91
2022/04/07 16:31:54;;;;;;;;;;;;;;;;;;1546706;28;84311;-88
2022/04/07 16:32:39;;;;;;;;;;;;;;;;;;1551018;28;83416;-91
2022/04/07 16:33:27;;;;;;;;;;;;;;;;;;1546768;28;84447;-89
2022/04/07 16:34:16;;;;;;;;;;;;;;;;;;1550792;28;83993;-89
2022/04/07 16:35:01;;;;;;;;;;;;;;;;;;1550659;28;85156;-88
2022/04/07 16:35:49;;;;;;;;;;;;;;;;;;1552982;28;83405;-90
2022/04/07 16:36:34;;;;;;;;;;;;;;;;;;1550943;28;85165;-89
2022/04/07 16:37:19;;;;;;;;;;;;;;;;;;1550997;28;83540;-91
2022/04/07 16:38:04;;;;;;;;;;;;;;;;;;1552903;28;85741;-89
2022/04/07 16:38:49;;;;;;;;;;;;;;;;;;1549140;28;85144;-88
2022/04/07 16:39:35;;;;;;;;;;;;;;;;;;1550989;28;85046;-90
2022/04/07 16:40:20;;;;;;;;;;;;;;;;;;1551799;28;84410;-89
2022/04/07 16:41:05;;;;;;;;;;;;;;;;;;1553408;28;86092;-90
2022/04/07 16:41:52;;;;;;;;;;;;;;;;;;1557034;28;85138;-90
2022/04/07 16:42:38;;;;;;;;;;;;;;;;;;1556929;28;83661;-88
2022/04/07 16:43:23;;;;;;;;;;;;;;;;;;1548114;28;83691;-89
2022/04/07 16:44:08;;;;;;;;;;;;;;;;;;1550537;28;85918;-90
2022/04/07 16:44:53;;;;;;;;;;;;;;;;;;1552828;28;85083;-91
2022/04/07 16:45:38;;;;;;;;;;;;;;;;;;1549082;28;83497;-88
2022/04/07 16:46:23;;;;;;;;;;;;;;;;;;1550689;28;84449;-90
2022/04/07 16:47:09;;;;;;;;;;;;;;;;;;1553003;28;83859;-89
2022/04/07 16:47:55;;;;;;;;;;;;;;;;;;1548752;28;85458;-90
2022/04/07 16:48:40;;;;;;;;;;;;;;;;;;1550857;28;86116;-90
2022/04/07 16:49:25;;;;;;;;;;;;;;;;;;1552515;28;84865;-92
2022/04/07 16:50:10;;;;;;;;;;;;;;;;;;1548629;28;83573;-92
2022/04/07 16:50:55;;;;;;;;;;;;;;;;;;1546500;28;83559;-93
2022/04/07 16:52:46;;;;;;;;;;;;;;;;;;1556459;28;83248;-93
2022/04/07 16:53:31;;;;;;;;;;;;;;;;;;1556754;28;85545;-86
2022/04/07 16:54:16;;;;;;;;;;;;;;;;;;1555341;28;82996;-87
2022/04/07 16:55:01;;;;;;;;;;;;;;;;;;1548893;28;84998;-88
2022/04/07 16:55:46;;;;;;;;;;;;;;;;;;1549950;28;87706;-86
2022/04/07 16:56:31;;;;;;;;;;;;;;;;;;1541042;28;96968;-86
2022/04/07 16:57:17;;;;;;;;;;;;;;;;;;1549673;28;85199;-86
2022/04/07 16:58:03;;;;;;;;;;;;;;;;;;1549611;28;85694;-85
